Time;durP1;ratioP1;P1;durP2;ratioP2;P2;SDS_P1;SDS_P2;PMS_P1;PMS_P2;Temp;Humidity;BMP_temperature;BMP_pressure;BME280_temperature;BME280_humidity;BME280_pressure;Samples;Min_cycle;Max_cycle;Signal;HPM_P1;HPM_P2
2021/09/21 00:01:13;;;;;;;3.42;2.45;;;19.50;61.90;;;;;;5055374;28;20171;-67
2021/09/21 00:03:39;;;;;;;2.92;1.88;;;19.40;61.80;;;;;;5055166;28;20741;-67
2021/09/21 00:06:05;;;;;;;2.08;1.98;;;19.40;61.80;;;;;;5054451;28;20171;-68
2021/09/21 00:08:34;;;;;;;2.47;2.28;;;19.40;61.80;;;;;;5055397;28;20187;-67
2021/09/21 00:11:00;;;;;;;2.58;2.15;;;19.40;61.80;;;;;;5054974;28;20175;-69
2021/09/21 00:13:26;;;;;;;2.50;2.28;;;19.40;61.90;;;;;;5054239;28;20646;-69
2021/09/21 00:15:51;;;;;;;2.45;2.25;;;19.40;61.80;;;;;;5054803;28;20217;-69
2021/09/21 00:18:17;;;;;;;2.80;2.03;;;19.40;61.80;;;;;;5055245;28;20175;-68
2021/09/21 00:20:42;;;;;;;2.38;2.20;;;19.40;61.90;;;;;;5054475;28;20225;-68
2021/09/21 00:23:08;;;;;;;2.67;2.30;;;19.40;61.90;;;;;;5054780;28;20207;-67
2021/09/21 00:25:33;;;;;;;2.28;2.08;;;19.40;61.80;;;;;;5055060;28;20175;-67
2021/09/21 00:27:59;;;;;;;2.50;2.30;;;19.40;61.90;;;;;;5053936;28;20179;-68
2021/09/21 00:30:24;;;;;;;2.00;1.90;;;19.40;61.90;;;;;;5054749;28;20195;-68
2021/09/21 00:33:01;;;;;;;2.75;2.15;;;19.40;61.80;;;;;;5054444;28;20175;-68
2021/09/21 00:35:27;;;;;;;3.80;2.45;;;19.30;61.80;;;;;;5054225;28;20178;-67
2021/09/21 00:37:52;;;;;;;2.30;2.10;;;19.30;61.80;;;;;;5053880;28;20657;-67
2021/09/21 00:40:18;;;;;;;1.73;1.63;;;19.40;61.90;;;;;;5054857;28;20558;-67
2021/09/21 00:42:44;;;;;;;1.85;1.75;;;19.30;61.80;;;;;;5053718;28;20207;-67
2021/09/21 00:45:16;;;;;;;2.47;2.00;;;19.30;61.80;;;;;;5054395;28;20187;-67
2021/09/21 00:47:41;;;;;;;2.65;2.45;;;19.30;61.80;;;;;;5036765;28;20179;-67
2021/09/21 00:50:07;;;;;;;2.42;2.13;;;19.30;61.80;;;;;;5054282;28;20182;-67
2021/09/21 00:52:33;;;;;;;2.05;1.92;;;19.30;61.80;;;;;;5054641;28;20175;-67
2021/09/21 00:54:58;;;;;;;2.10;1.90;;;19.30;61.80;;;;;;5053405;28;20167;-68
2021/09/21 00:57:24;;;;;;;2.20;2.00;;;19.30;61.80;;;;;;5054135;28;20190;-67
2021/09/21 00:59:49;;;;;;;1.98;1.83;;;19.30;61.80;;;;;;5053922;28;20530;-67
2021/09/21 01:02:15;;;;;;;2.33;2.13;;;19.30;61.80;;;;;;5019438;28;20274;-68
2021/09/21 01:04:40;;;;;;;2.10;1.90;;;19.30;61.80;;;;;;5054204;28;20249;-68
2021/09/21 01:07:06;;;;;;;2.45;2.25;;;19.30;61.80;;;;;;5053903;28;20274;-68
2021/09/21 01:09:31;;;;;;;2.80;2.10;;;19.30;61.80;;;;;;5053480;28;20211;-68
2021/09/21 01:11:58;;;;;;;2.47;2.25;;;19.30;61.80;;;;;;5053522;28;20572;-68
2021/09/21 01:14:24;;;;;;;3.10;2.28;;;19.30;61.80;;;;;;5054251;28;20265;-68
2021/09/21 01:16:50;;;;;;;2.05;1.90;;;19.30;61.80;;;;;;5053100;28;20265;-69
2021/09/21 01:19:16;;;;;;;2.20;2.00;;;19.30;61.80;;;;;;5053704;28;20629;-68
2021/09/21 01:21:42;;;;;;;2.35;2.15;;;19.20;61.80;;;;;;5053918;28;20186;-67
2021/09/21 01:24:08;;;;;;;2.47;2.22;;;19.20;61.80;;;;;;5052745;28;20214;-67
2021/09/21 01:26:34;;;;;;;1.75;1.65;;;19.20;61.70;;;;;;5053659;28;20182;-68
2021/09/21 01:28:59;;;;;;;2.13;2.03;;;19.20;61.70;;;;;;5053288;28;20171;-68
2021/09/21 01:31:25;;;;;;;2.50;2.20;;;19.20;61.80;;;;;;5053061;28;20172;-68
2021/09/21 01:33:51;;;;;;;2.03;1.92;;;19.20;61.80;;;;;;5053544;28;20171;-68
2021/09/21 01:36:17;;;;;;;2.13;1.98;;;19.20;61.80;;;;;;5053675;28;20183;-68
2021/09/21 01:38:43;;;;;;;2.13;2.03;;;19.20;61.80;;;;;;5052807;28;20171;-68
2021/09/21 01:41:08;;;;;;;2.30;2.10;;;19.20;61.80;;;;;;5053098;28;20649;-67
2021/09/21 01:43:34;;;;;;;2.45;2.25;;;19.20;61.80;;;;;;5053617;28;20305;-67
2021/09/21 01:45:59;;;;;;;2.10;1.83;;;19.20;61.80;;;;;;5052693;28;20181;-67
2021/09/21 01:48:25;;;;;;;2.47;2.28;;;19.20;61.80;;;;;;5053015;28;20175;-67
2021/09/21 01:50:56;;;;;;;2.42;2.17;;;19.20;61.80;;;;;;5053246;28;20175;-68
2021/09/21 01:53:38;;;;;;;2.63;2.13;;;19.20;61.80;;;;;;5053327;28;20178;-68
2021/09/21 02:01:15;;;;;;;2.35;2.13;;;19.20;61.70;;;;;;5053401;28;20700;-67
2021/09/21 02:03:41;;;;;;;1.98;1.88;;;19.10;61.70;;;;;;5053168;28;20214;-67
2021/09/21 02:06:07;;;;;;;2.50;2.30;;;19.20;61.80;;;;;;5052030;28;20240;-68
2021/09/21 02:08:32;;;;;;;2.45;2.20;;;19.10;61.70;;;;;;5053057;28;20606;-68
2021/09/21 02:10:59;;;;;;;2.58;2.03;;;19.10;62.60;;;;;;5052848;28;20265;-68
2021/09/21 02:13:24;;;;;;;2.00;1.90;;;19.10;61.70;;;;;;5052096;28;20230;-68
2021/09/21 02:15:50;;;;;;;1.95;1.85;;;19.10;61.80;;;;;;5052708;28;20263;-69
2021/09/21 02:18:15;;;;;;;2.00;1.90;;;19.10;61.80;;;;;;5053139;28;20179;-68
2021/09/21 02:20:41;;;;;;;3.67;2.20;;;19.10;61.80;;;;;;5052147;28;20168;-67
2021/09/21 02:23:06;;;;;;;2.30;2.10;;;19.10;61.80;;;;;;5052700;28;20669;-67
2021/09/21 02:25:32;;;;;;;2.45;2.25;;;19.10;61.80;;;;;;5052994;28;20278;-67
2021/09/21 02:27:57;;;;;;;2.28;2.10;;;19.10;61.80;;;;;;5051636;28;20178;-68
2021/09/21 02:30:23;;;;;;;2.03;1.90;;;19.10;61.80;;;;;;5052726;28;20595;-69
2021/09/21 02:32:49;;;;;;;3.05;2.20;;;19.10;61.80;;;;;;5052557;28;20225;-68
2021/09/21 02:35:16;;;;;;;2.45;2.22;;;19.10;61.80;;;;;;5052360;28;20199;-68
2021/09/21 02:37:41;;;;;;;1.90;1.80;;;19.10;61.80;;;;;;5052925;28;20175;-67
2021/09/21 02:40:08;;;;;;;2.22;2.03;;;19.10;61.80;;;;;;5052615;28;20229;-67
2021/09/21 02:42:34;;;;;;;2.30;2.10;;;19.00;61.70;;;;;;5052499;28;20194;-67
2021/09/21 02:45:00;;;;;;;2.38;2.17;;;19.00;61.80;;;;;;5052367;28;20183;-67
2021/09/21 02:47:25;;;;;;;2.10;2.00;;;19.00;61.70;;;;;;5052020;28;20171;-67
2021/09/21 02:49:51;;;;;;;2.40;2.05;;;19.00;61.70;;;;;;5052232;28;20167;-68
2021/09/21 02:52:16;;;;;;;3.22;2.15;;;19.00;61.80;;;;;;5052707;28;20262;-68
2021/09/21 02:54:42;;;;;;;2.42;2.22;;;19.00;61.80;;;;;;5052340;28;20174;-68
2021/09/21 02:57:07;;;;;;;2.40;2.08;;;19.00;61.80;;;;;;5052449;28;20266;-67
2021/09/21 02:59:33;;;;;;;2.38;2.17;;;19.00;61.80;;;;;;5053222;28;20228;-67
2021/09/21 03:01:58;;;;;;;2.50;2.30;;;19.00;61.70;;;;;;5055609;28;20168;-67
2021/09/21 03:04:27;;;;;;;2.20;2.00;;;19.00;61.80;;;;;;5056340;28;20722;-67
2021/09/21 03:07:01;;;;;;;1.90;1.80;;;19.00;61.80;;;;;;5056333;28;20183;-67
2021/09/21 03:17:28;;;;;;;2.38;2.17;;;19.00;61.80;;;;;;5055802;28;20244;-68
2021/09/21 03:19:58;;;;;;;2.30;2.10;;;19.00;61.80;;;;;;5055986;28;20634;-67
2021/09/21 03:22:24;;;;;;;2.20;2.00;;;19.00;61.80;;;;;;5055628;28;20210;-67
2021/09/21 03:24:50;;;;;;;2.10;1.90;;;19.00;61.80;;;;;;5055759;28;20246;-67
2021/09/21 03:27:16;;;;;;;1.85;1.75;;;19.00;61.90;;;;;;5055988;28;20202;-67
2021/09/21 03:29:42;;;;;;;2.00;1.90;;;18.90;62.60;;;;;;5055480;28;20179;-68
2021/09/21 03:32:07;;;;;;;2.42;2.22;;;18.90;61.80;;;;;;5055603;28;20175;-68
2021/09/21 03:34:36;;;;;;;2.20;2.10;;;18.90;61.80;;;;;;5056025;28;20542;-67
2021/09/21 03:37:03;;;;;;;2.30;2.20;;;18.90;61.80;;;;;;5054797;28;20511;-68
2021/09/21 03:39:28;;;;;;;2.28;2.10;;;18.90;61.80;;;;;;5055823;28;20186;-67
2021/09/21 03:41:54;;;;;;;1.80;1.70;;;18.90;61.80;;;;;;5055384;28;20176;-67
2021/09/21 03:44:19;;;;;;;2.53;2.33;;;18.90;61.80;;;;;;5055238;28;20684;-67
2021/09/21 03:46:45;;;;;;;2.22;2.00;;;18.90;61.80;;;;;;5055896;28;20171;-66
2021/09/21 03:49:10;;;;;;;2.38;2.17;;;18.90;61.80;;;;;;5055928;28;20172;-67
2021/09/21 03:51:36;;;;;;;2.65;2.00;;;18.90;61.80;;;;;;5055047;28;20171;-67
2021/09/21 03:54:01;;;;;;;2.20;2.00;;;18.90;61.80;;;;;;5055306;28;20194;-67
2021/09/21 03:56:27;;;;;;;2.40;2.13;;;18.90;61.80;;;;;;5055505;28;20262;-68
2021/09/21 03:58:52;;;;;;;2.15;1.98;;;18.90;61.80;;;;;;5054675;28;20206;-66
2021/09/21 04:01:18;;;;;;;2.53;2.33;;;18.90;61.80;;;;;;5055529;28;20175;-66
2021/09/21 04:03:43;;;;;;;1.95;1.85;;;18.90;61.80;;;;;;5055104;28;20253;-66
2021/09/21 04:06:09;;;;;;;2.00;1.88;;;18.90;61.80;;;;;;5054364;28;20174;-66
2021/09/21 04:08:34;;;;;;;2.72;2.13;;;18.90;61.80;;;;;;5055266;28;20179;-67
2021/09/21 04:11:00;;;;;;;1.95;1.85;;;18.90;61.80;;;;;;5054433;28;20171;-67
2021/09/21 04:13:25;;;;;;;2.33;2.13;;;18.90;61.80;;;;;;5053856;28;20222;-68
2021/09/21 04:15:51;;;;;;;2.17;2.08;;;18.80;61.70;;;;;;5055011;28;20171;-67
2021/09/21 04:18:16;;;;;;;2.13;2.00;;;18.90;61.80;;;;;;5054931;28;20544;-67
2021/09/21 04:20:42;;;;;;;2.60;2.40;;;18.90;61.80;;;;;;5054347;28;20182;-66
2021/09/21 04:23:08;;;;;;;2.10;2.00;;;18.80;61.80;;;;;;5054670;28;20294;-67
2021/09/21 04:25:33;;;;;;;2.30;2.10;;;18.90;61.80;;;;;;5054969;28;20250;-67
2021/09/21 04:27:59;;;;;;;2.13;2.03;;;18.80;61.80;;;;;;5054172;28;20187;-69
2021/09/21 04:30:25;;;;;;;2.60;2.40;;;18.80;61.80;;;;;;5054966;28;20171;-68
2021/09/21 04:32:50;;;;;;;1.90;1.75;;;18.80;61.80;;;;;;5053889;28;20178;-68
2021/09/21 04:35:16;;;;;;;2.45;2.25;;;18.80;61.80;;;;;;5054770;28;20171;-67
2021/09/21 04:37:42;;;;;;;2.20;2.10;;;18.80;61.80;;;;;;5054839;28;20171;-67
2021/09/21 04:40:08;;;;;;;2.50;2.30;;;18.80;61.80;;;;;;5053562;28;20191;-67
2021/09/21 04:42:33;;;;;;;2.08;1.98;;;18.80;61.90;;;;;;5054634;28;20320;-66
2021/09/21 04:44:59;;;;;;;2.58;2.38;;;18.80;61.90;;;;;;5054377;28;20366;-66
2021/09/21 04:47:24;;;;;;;2.50;2.30;;;18.80;61.80;;;;;;5054214;28;20175;-66
2021/09/21 04:49:50;;;;;;;2.15;2.00;;;18.80;61.80;;;;;;5054315;28;20190;-67
2021/09/21 04:52:16;;;;;;;2.55;2.35;;;18.80;61.80;;;;;;5054460;28;20641;-67
2021/09/21 04:54:42;;;;;;;2.67;2.45;;;18.80;61.80;;;;;;5053679;28;20258;-68
2021/09/21 04:57:07;;;;;;;2.50;2.30;;;18.80;61.80;;;;;;5054045;28;20185;-67
2021/09/21 04:59:33;;;;;;;2.30;2.10;;;18.80;61.80;;;;;;5054514;28;20187;-66
2021/09/21 05:01:58;;;;;;;2.30;2.10;;;18.80;61.80;;;;;;5053477;28;20217;-66
2021/09/21 05:04:24;;;;;;;2.08;1.92;;;18.80;61.80;;;;;;5054105;28;20667;-66
2021/09/21 05:06:49;;;;;;;2.40;2.20;;;18.80;61.80;;;;;;5054086;28;20257;-67
2021/09/21 05:09:15;;;;;;;2.28;2.10;;;18.80;61.80;;;;;;5053382;28;20646;-67
2021/09/21 05:11:41;;;;;;;2.28;2.08;;;18.80;61.80;;;;;;5053960;28;20180;-67
2021/09/21 05:14:07;;;;;;;1.90;1.80;;;18.80;61.80;;;;;;5053959;28;20175;-67
2021/09/21 05:16:33;;;;;;;2.10;2.00;;;18.70;61.80;;;;;;5053484;28;20263;-67
2021/09/21 05:18:59;;;;;;;2.33;2.13;;;18.70;61.80;;;;;;5053769;28;20183;-67
2021/09/21 05:21:25;;;;;;;2.30;2.10;;;18.70;61.80;;;;;;5054062;28;20254;-67
2021/09/21 05:23:50;;;;;;;2.42;2.22;;;18.70;61.80;;;;;;5052703;28;20622;-67
2021/09/21 05:26:17;;;;;;;2.45;2.25;;;18.70;61.80;;;;;;5053792;28;20171;-68
2021/09/21 05:28:43;;;;;;;2.40;2.20;;;18.70;61.80;;;;;;5053899;28;20179;-67
2021/09/21 05:31:08;;;;;;;2.30;2.10;;;18.70;61.80;;;;;;5052520;28;20197;-68
2021/09/21 05:33:34;;;;;;;2.30;2.20;;;18.70;61.80;;;;;;5053747;28;20167;-68
2021/09/21 05:35:59;;;;;;;2.50;2.30;;;18.70;61.80;;;;;;5053132;28;20195;-69
2021/09/21 05:38:25;;;;;;;2.20;2.10;;;18.70;61.80;;;;;;5053444;28;20187;-67
2021/09/21 05:40:50;;;;;;;2.38;2.17;;;18.70;61.80;;;;;;5053046;28;20585;-68
2021/09/21 05:43:16;;;;;;;2.30;2.10;;;18.70;61.80;;;;;;5052728;28;20214;-67
2021/09/21 05:45:41;;;;;;;2.38;2.17;;;18.70;61.90;;;;;;5053680;28;20201;-67
2021/09/21 05:48:07;;;;;;;2.28;2.08;;;18.70;61.80;;;;;;5053308;28;20175;-66
2021/09/21 05:50:33;;;;;;;2.33;2.13;;;18.70;61.90;;;;;;5052777;28;20186;-68
2021/09/21 05:52:58;;;;;;;2.08;1.98;;;18.70;61.80;;;;;;5053183;28;20180;-68
2021/09/21 05:55:25;;;;;;;2.58;2.38;;;18.70;61.80;;;;;;5053278;28;20167;-67
2021/09/21 05:57:50;;;;;;;2.40;2.20;;;18.70;61.90;;;;;;5052474;28;20198;-68
2021/09/21 06:00:16;;;;;;;2.30;2.20;;;18.70;61.90;;;;;;5053352;28;20221;-67
2021/09/21 06:02:42;;;;;;;2.53;2.33;;;18.70;61.90;;;;;;5053127;28;20178;-67
2021/09/21 06:05:08;;;;;;;2.00;1.90;;;18.70;61.90;;;;;;5052067;28;20179;-67
2021/09/21 06:07:34;;;;;;;2.60;2.30;;;18.70;61.90;;;;;;5053221;28;20185;-68
2021/09/21 06:10:00;;;;;;;2.13;1.92;;;18.70;61.90;;;;;;5052853;28;20254;-68
2021/09/21 06:12:25;;;;;;;2.22;2.03;;;18.70;61.90;;;;;;5052238;28;20330;-68
2021/09/21 06:14:51;;;;;;;2.50;2.28;;;18.70;61.90;;;;;;5052660;28;20187;-68
2021/09/21 06:17:16;;;;;;;2.20;2.00;;;18.70;61.90;;;;;;5052972;28;20657;-68
2021/09/21 06:19:42;;;;;;;1.88;1.77;;;18.70;61.90;;;;;;5052232;28;20178;-67
2021/09/21 06:22:07;;;;;;;2.22;2.03;;;18.70;61.90;;;;;;5052632;28;20245;-67
2021/09/21 06:24:33;;;;;;;2.22;2.00;;;18.70;61.90;;;;;;5052714;28;20301;-67
2021/09/21 06:26:58;;;;;;;2.28;2.08;;;18.70;61.80;;;;;;5051689;28;20193;-67
2021/09/21 06:29:24;;;;;;;2.17;1.98;;;18.70;61.80;;;;;;5053014;28;20186;-68
2021/09/21 06:31:49;;;;;;;2.60;2.10;;;18.80;62.00;;;;;;5052564;28;20198;-68
2021/09/21 06:34:15;;;;;;;2.75;2.55;;;18.70;61.90;;;;;;5051546;28;20203;-68
2021/09/21 06:36:40;;;;;;;2.15;2.05;;;18.70;61.90;;;;;;5052393;28;20171;-68
2021/09/21 06:39:06;;;;;;;2.40;2.20;;;18.70;61.90;;;;;;5052191;28;20183;-68
2021/09/21 06:41:31;;;;;;;2.30;2.10;;;18.70;61.90;;;;;;5052076;28;20625;-67
2021/09/21 06:43:57;;;;;;;2.30;2.20;;;18.70;61.90;;;;;;5052346;28;20606;-67
2021/09/21 06:46:22;;;;;;;2.70;2.50;;;18.70;61.80;;;;;;5052071;28;20173;-66
2021/09/21 06:48:48;;;;;;;2.30;2.10;;;18.80;61.90;;;;;;5052644;28;20629;-67
2021/09/21 06:51:13;;;;;;;2.30;2.10;;;18.70;61.90;;;;;;5052599;28;20194;-68
2021/09/21 06:53:39;;;;;;;2.45;2.25;;;18.70;61.90;;;;;;5051793;28;20179;-69
2021/09/21 06:56:05;;;;;;;2.45;2.25;;;18.70;61.90;;;;;;5052115;28;20175;-68
2021/09/21 06:58:33;;;;;;;3.25;2.30;;;18.80;61.90;;;;;;5052700;28;20186;-68
2021/09/21 07:00:58;;;;;;;2.92;2.20;;;18.80;61.70;;;;;;5051641;28;20178;-67
2021/09/21 07:03:24;;;;;;;6.50;2.35;;;18.80;61.90;;;;;;5052434;28;20206;-69
2021/09/21 07:05:49;;;;;;;5.03;2.33;;;18.90;62.60;;;;;;5052190;28;20175;-73
2021/09/21 07:08:16;;;;;;;3.95;1.98;;;18.90;62.20;;;;;;5051695;28;20590;-68
2021/09/21 07:10:41;;;;;;;5.72;2.38;;;18.90;62.40;;;;;;5052625;28;20175;-69
2021/09/21 07:13:06;;;;;;;9.82;2.53;;;19.00;62.10;;;;;;5051773;28;20227;-68
2021/09/21 07:15:32;;;;;;;4.55;2.33;;;19.00;62.20;;;;;;5051898;28;20186;-68
2021/09/21 07:17:57;;;;;;;4.55;2.65;;;18.90;62.30;;;;;;5052334;28;20194;-67
2021/09/21 07:20:24;;;;;;;5.00;2.92;;;18.90;61.60;;;;;;5052427;28;20203;-67
2021/09/21 07:22:50;;;;;;;8.23;2.90;;;18.90;61.30;;;;;;5051179;28;20175;-67
2021/09/21 07:25:17;;;;;;;2.65;2.45;;;18.90;61.80;;;;;;5052329;28;20224;-67
2021/09/21 07:27:43;;;;;;;4.18;2.25;;;18.90;62.00;;;;;;5052382;28;20186;-67
2021/09/21 07:30:09;;;;;;;3.13;2.50;;;18.90;62.10;;;;;;5051369;28;20168;-68
2021/09/21 07:32:34;;;;;;;5.10;2.50;;;18.90;62.10;;;;;;5052112;28;20248;-68
2021/09/21 07:35:01;;;;;;;6.60;3.13;;;18.90;62.10;;;;;;5051812;28;20647;-68
2021/09/21 07:37:26;;;;;;;3.30;2.40;;;18.90;62.20;;;;;;5051215;28;20638;-67
2021/09/21 07:39:52;;;;;;;3.78;2.30;;;18.80;62.20;;;;;;5051914;28;20175;-67
2021/09/21 07:42:17;;;;;;;4.10;2.60;;;18.90;62.30;;;;;;5052215;28;20171;-67
2021/09/21 07:44:45;;;;;;;2.40;2.10;;;18.90;62.40;;;;;;5051250;28;20246;-67
2021/09/21 07:47:10;;;;;;;2.55;2.13;;;18.80;62.20;;;;;;5053078;28;20203;-67
2021/09/21 07:49:36;;;;;;;2.88;2.40;;;18.90;62.40;;;;;;5055547;28;20273;-67
2021/09/21 07:52:01;;;;;;;4.43;2.78;;;18.90;62.50;;;;;;5054708;28;20254;-67
2021/09/21 07:54:27;;;;;;;6.13;3.03;;;18.90;62.50;;;;;;5055909;28;20264;-67
2021/09/21 07:56:52;;;;;;;4.05;2.50;;;18.90;62.60;;;;;;5054672;28;20178;-67
2021/09/21 07:59:19;;;;;;;4.13;2.72;;;18.90;62.60;;;;;;5055436;28;20191;-67
2021/09/21 08:01:44;;;;;;;3.80;2.80;;;18.90;62.70;;;;;;5055541;28;20175;-67
2021/09/21 08:04:10;;;;;;;3.38;2.22;;;19.00;62.60;;;;;;5054276;28;20559;-67
2021/09/21 08:06:35;;;;;;;3.13;2.53;;;19.00;62.40;;;;;;5055239;28;20163;-67
2021/09/21 08:09:01;;;;;;;3.78;2.80;;;19.00;62.20;;;;;;5055107;28;20622;-67
2021/09/21 08:11:29;;;;;;;2.22;2.00;;;19.10;62.40;;;;;;5054668;28;20178;-68
2021/09/21 08:13:55;;;;;;;3.08;2.28;;;19.10;62.20;;;;;;5054710;28;20254;-68
2021/09/21 08:16:20;;;;;;;5.45;2.50;;;19.20;62.20;;;;;;5055085;28;20264;-68
2021/09/21 08:18:46;;;;;;;3.80;2.65;;;19.20;62.10;;;;;;5054394;28;20538;-67
2021/09/21 08:21:11;;;;;;;3.10;2.65;;;19.20;62.10;;;;;;5054769;28;20221;-67
2021/09/21 08:23:37;;;;;;;2.58;2.38;;;19.20;62.30;;;;;;5055055;28;20319;-67
2021/09/21 08:26:02;;;;;;;4.07;2.78;;;19.20;62.20;;;;;;5054133;28;20171;-67
2021/09/21 08:28:28;;;;;;;3.17;2.38;;;19.20;62.20;;;;;;5055036;28;20233;-67
2021/09/21 08:30:53;;;;;;;4.78;2.25;;;19.20;62.30;;;;;;5054543;28;20694;-68
2021/09/21 08:33:19;;;;;;;4.30;2.40;;;19.20;62.30;;;;;;5054093;28;20210;-69
2021/09/21 08:35:44;;;;;;;4.25;2.40;;;19.20;62.40;;;;;;5054629;28;20266;-67
2021/09/21 08:38:10;;;;;;;2.45;2.25;;;19.20;62.30;;;;;;5054487;28;20266;-67
2021/09/21 08:40:35;;;;;;;4.45;2.33;;;19.20;62.30;;;;;;5054189;28;20167;-68
2021/09/21 08:43:01;;;;;;;2.40;2.17;;;19.20;62.30;;;;;;5054437;28;20699;-68
2021/09/21 08:45:26;;;;;;;2.30;2.00;;;19.20;62.20;;;;;;5054621;28;20186;-68
2021/09/21 08:47:52;;;;;;;2.60;2.28;;;19.20;62.30;;;;;;5053804;28;20653;-67
2021/09/21 08:50:18;;;;;;;2.10;1.98;;;19.20;62.30;;;;;;5036582;28;20225;-69
2021/09/21 08:52:43;;;;;;;3.15;2.45;;;19.20;62.20;;;;;;5054638;28;20629;-68
2021/09/21 08:55:10;;;;;;;2.75;2.47;;;19.30;62.20;;;;;;5053382;28;20542;-69
2021/09/21 08:57:37;;;;;;;3.05;2.28;;;19.30;62.10;;;;;;5054001;28;20183;-69
2021/09/21 09:00:03;;;;;;;2.33;2.13;;;19.30;62.00;;;;;;5053146;28;20536;-68
2021/09/21 09:02:29;;;;;;;2.53;2.05;;;19.40;61.90;;;;;;5054143;28;20186;-68
2021/09/21 09:05:03;;;;;;;3.53;2.05;;;19.40;61.90;;;;;;5053840;28;20215;-68
2021/09/21 09:07:29;;;;;;;3.80;2.40;;;19.40;61.90;;;;;;5053526;28;20610;-69
2021/09/21 09:10:03;;;;;;;2.85;2.50;;;19.50;61.90;;;;;;5036050;28;20261;-72
2021/09/21 09:12:30;;;;;;;2.50;2.30;;;19.50;62.00;;;;;;5053128;28;20701;-69
2021/09/21 09:14:56;;;;;;;5.47;2.13;;;19.50;61.90;;;;;;5051580;28;20194;-70
2021/09/21 09:17:21;;;;;;;2.33;2.13;;;19.50;61.90;;;;;;5052488;28;20171;-69
2021/09/21 09:19:50;;;;;;;3.63;2.38;;;19.50;61.90;;;;;;5052739;28;20174;-68
2021/09/21 09:22:23;;;;;;;2.53;2.10;;;19.50;61.90;;;;;;5051789;28;20186;-67
2021/09/21 09:25:00;;;;;;;2.33;1.90;;;19.50;61.80;;;;;;5050299;28;20289;-67
2021/09/21 09:27:46;;;;;;;2.47;2.05;;;19.60;61.90;;;;;;5050273;28;20198;-68
2021/09/21 09:30:19;;;;;;;2.85;2.13;;;19.60;61.90;;;;;;5050342;28;20167;-70
2021/09/21 09:32:45;;;;;;;2.92;2.17;;;19.60;61.90;;;;;;5050073;28;20175;-69
2021/09/21 09:35:10;;;;;;;2.67;2.30;;;19.70;61.90;;;;;;5051464;28;20167;-70
2021/09/21 09:37:40;;;;;;;3.05;2.28;;;19.70;61.80;;;;;;5052423;28;20205;-67
2021/09/21 09:40:08;;;;;;;2.63;2.15;;;19.70;61.80;;;;;;5049828;28;20167;-69
2021/09/21 09:42:34;;;;;;;1.98;1.88;;;19.70;61.80;;;;;;5051548;28;20186;-68
2021/09/21 09:45:03;;;;;;;2.40;2.20;;;19.80;61.90;;;;;;5051821;28;20191;-68
2021/09/21 09:47:29;;;;;;;2.70;2.03;;;19.80;62.30;;;;;;5052139;28;20171;-68
2021/09/21 09:49:56;;;;;;;2.33;2.13;;;19.80;61.80;;;;;;5051346;28;20179;-68
2021/09/21 09:52:21;;;;;;;3.97;2.35;;;19.80;61.80;;;;;;5052126;28;20171;-70
2021/09/21 09:54:47;;;;;;;2.25;2.00;;;19.90;61.80;;;;;;5051713;28;20881;-71
2021/09/21 09:57:14;;;;;;;2.20;2.00;;;19.90;61.80;;;;;;5051277;28;20178;-69
2021/09/21 09:59:41;;;;;;;2.13;1.95;;;19.90;61.80;;;;;;5051644;28;20701;-69
2021/09/21 10:02:06;;;;;;;2.70;2.20;;;19.90;61.70;;;;;;5051729;28;20528;-68
2021/09/21 10:04:32;;;;;;;3.92;2.00;;;19.90;61.70;;;;;;5050995;28;20688;-69
2021/09/21 10:06:57;;;;;;;2.90;2.03;;;19.90;61.80;;;;;;5051356;28;20195;-70
2021/09/21 10:09:23;;;;;;;2.45;2.03;;;19.90;61.80;;;;;;5051263;28;20210;-71
2021/09/21 10:11:51;;;;;;;3.45;1.80;;;20.00;61.80;;;;;;5050790;28;20590;-71
2021/09/21 10:14:18;;;;;;;2.30;1.98;;;20.00;61.90;;;;;;5052740;28;20237;-66
2021/09/21 10:16:55;;;;;;;2.65;1.85;;;20.00;61.80;;;;;;5051535;28;20517;-67
2021/09/21 10:19:22;;;;;;;3.38;2.10;;;20.00;61.90;;;;;;5055444;28;20178;-67
2021/09/21 10:21:48;;;;;;;2.63;1.95;;;20.00;61.80;;;;;;5052412;28;20179;-67
2021/09/21 10:24:14;;;;;;;3.63;1.85;;;20.00;61.90;;;;;;5053056;28;20272;-67
2021/09/21 10:26:41;;;;;;;3.97;2.28;;;20.00;61.90;;;;;;5059592;28;20179;-66
2021/09/21 10:29:06;;;;;;;2.20;1.95;;;20.00;62.70;;;;;;5072568;28;20186;-66
2021/09/21 10:31:34;;;;;;;3.30;1.90;;;20.10;61.90;;;;;;5072290;28;20308;-67
2021/09/21 10:34:13;;;;;;;2.50;2.10;;;20.10;61.80;;;;;;5071544;28;20198;-68
2021/09/21 10:36:46;;;;;;;2.53;2.33;;;20.10;61.80;;;;;;5033548;28;20175;-67
2021/09/21 10:39:12;;;;;;;3.75;2.20;;;20.10;61.70;;;;;;5036925;28;20773;-67
2021/09/21 10:41:49;;;;;;;3.88;2.15;;;20.10;61.60;;;;;;5052626;28;20622;-67
2021/09/21 10:44:15;;;;;;;6.28;2.80;;;20.20;61.50;;;;;;5052777;28;20688;-66
2021/09/21 10:46:47;;;;;;;4.18;2.15;;;20.20;61.40;;;;;;5051837;28;20250;-68
2021/09/21 10:49:37;;;;;;;2.42;1.80;;;20.20;61.40;;;;;;5052652;28;20695;-68
2021/09/21 10:52:10;;;;;;;3.35;2.10;;;20.20;61.40;;;;;;5045844;28;20179;-68
2021/09/21 10:54:40;;;;;;;3.90;2.15;;;20.20;61.30;;;;;;5051912;28;20179;-68
2021/09/21 10:57:12;;;;;;;6.72;2.00;;;20.20;61.40;;;;;;5052271;28;20178;-69
2021/09/21 10:59:40;;;;;;;5.70;1.92;;;20.20;61.40;;;;;;5052067;28;20175;-69
2021/09/21 11:02:06;;;;;;;4.30;2.00;;;20.20;61.30;;;;;;5052227;28;20202;-70
2021/09/21 11:04:39;;;;;;;4.40;1.90;;;20.20;61.20;;;;;;5052596;28;20218;-69
2021/09/21 11:07:05;;;;;;;4.10;2.00;;;20.30;61.20;;;;;;5051491;28;20179;-68
2021/09/21 11:09:30;;;;;;;2.78;1.92;;;20.30;61.10;;;;;;5052246;28;20195;-68
2021/09/21 11:12:03;;;;;;;3.03;1.90;;;20.30;61.10;;;;;;5051852;28;20528;-69
2021/09/21 11:14:29;;;;;;;3.97;1.85;;;20.40;61.10;;;;;;5051736;28;20658;-69
2021/09/21 11:16:55;;;;;;;2.05;1.73;;;20.40;61.10;;;;;;5050586;28;20225;-72
2021/09/21 11:19:28;;;;;;;2.20;2.00;;;20.40;60.90;;;;;;5052502;28;20233;-69
2021/09/21 11:22:12;;;;;;;2.38;2.00;;;20.40;60.90;;;;;;5054108;28;20229;-69
2021/09/21 11:24:38;;;;;;;2.47;1.85;;;20.40;60.80;;;;;;5056046;28;20673;-68
2021/09/21 11:27:06;;;;;;;3.42;2.10;;;20.40;60.80;;;;;;5055849;28;20268;-69
2021/09/21 11:29:34;;;;;;;5.13;2.38;;;20.40;60.60;;;;;;5055625;28;20179;-70
2021/09/21 11:32:00;;;;;;;2.30;1.98;;;20.40;60.70;;;;;;5055694;28;20679;-71
2021/09/21 11:34:28;;;;;;;2.60;2.33;;;20.40;60.70;;;;;;5055965;28;20187;-70
2021/09/21 11:36:54;;;;;;;2.50;1.90;;;20.40;60.60;;;;;;5054937;28;20190;-68
2021/09/21 11:39:19;;;;;;;2.70;1.70;;;20.40;60.60;;;;;;5056094;28;20179;-67
2021/09/21 11:41:52;;;;;;;2.97;1.95;;;20.50;60.60;;;;;;5055302;28;20175;-67
2021/09/21 11:44:17;;;;;;;4.43;1.98;;;20.50;60.50;;;;;;5055960;28;20616;-67
2021/09/21 11:46:43;;;;;;;3.53;1.95;;;20.50;60.50;;;;;;5055863;28;20634;-67
2021/09/21 11:49:09;;;;;;;3.05;1.92;;;20.50;60.40;;;;;;5054765;28;20168;-67
2021/09/21 11:51:35;;;;;;;2.65;1.75;;;20.50;60.30;;;;;;5054550;28;20644;-69
2021/09/21 11:54:00;;;;;;;2.20;1.60;;;20.50;60.20;;;;;;5054403;28;20214;-69
2021/09/21 11:56:26;;;;;;;2.20;1.98;;;20.50;60.20;;;;;;5055041;28;20207;-69
2021/09/21 11:59:01;;;;;;;3.97;1.88;;;20.50;60.20;;;;;;5055231;28;20175;-68
2021/09/21 12:01:29;;;;;;;1.80;1.70;;;20.50;60.10;;;;;;5055416;28;20698;-69
2021/09/21 12:03:55;;;;;;;1.80;1.70;;;20.60;60.10;;;;;;5054423;28;20207;-69
2021/09/21 12:06:31;;;;;;;2.33;1.67;;;20.60;59.90;;;;;;5055247;28;20178;-69
2021/09/21 12:08:59;;;;;;;1.83;1.70;;;20.60;59.80;;;;;;5054018;28;20186;-70
2021/09/21 12:11:25;;;;;;;2.38;1.77;;;20.60;59.80;;;;;;5037223;28;20174;-71
2021/09/21 12:13:50;;;;;;;2.47;1.60;;;20.60;59.70;;;;;;5054853;28;20230;-70
2021/09/21 12:16:16;;;;;;;2.72;1.60;;;20.70;60.40;;;;;;5055047;28;20171;-70
2021/09/21 12:18:41;;;;;;;4.05;2.42;;;20.70;59.60;;;;;;5054451;28;20652;-69
2021/09/21 12:21:12;;;;;;;3.47;1.90;;;20.70;59.70;;;;;;5055008;28;20197;-68
2021/09/21 12:23:39;;;;;;;1.55;1.45;;;20.70;59.70;;;;;;5055145;28;20211;-69
2021/09/21 12:26:05;;;;;;;1.67;1.58;;;20.70;59.70;;;;;;5058836;28;20186;-69
2021/09/21 12:28:35;;;;;;;2.55;1.90;;;20.70;59.60;;;;;;5075117;28;20170;-69
2021/09/21 12:31:11;;;;;;;1.70;1.60;;;20.70;59.70;;;;;;5074151;28;20175;-70
2021/09/21 12:33:37;;;;;;;2.10;1.77;;;20.70;59.70;;;;;;5074070;28;20701;-69
2021/09/21 12:36:03;;;;;;;2.15;1.63;;;20.70;59.70;;;;;;5074807;28;20186;-70
2021/09/21 12:38:29;;;;;;;2.55;1.70;;;20.70;59.70;;;;;;5074292;28;20182;-75
2021/09/21 12:40:56;;;;;;;3.00;1.92;;;20.70;59.80;;;;;;5074421;28;20621;-67
2021/09/21 12:43:32;;;;;;;2.75;2.00;;;20.70;59.70;;;;;;5074343;28;20210;-67
2021/09/21 12:46:02;;;;;;;2.95;1.92;;;20.60;59.70;;;;;;5073696;28;20174;-66
2021/09/21 12:48:33;;;;;;;3.08;1.95;;;20.60;59.80;;;;;;5074455;28;20543;-68
2021/09/21 12:50:59;;;;;;;2.70;1.80;;;20.60;59.70;;;;;;5074486;28;20178;-67
2021/09/21 12:53:25;;;;;;;4.75;2.03;;;20.60;59.60;;;;;;5074073;28;20183;-66
2021/09/21 12:55:58;;;;;;;2.58;1.70;;;20.60;59.60;;;;;;5074183;28;20224;-72
2021/09/21 12:58:33;;;;;;;3.58;1.80;;;20.60;59.40;;;;;;5077846;28;20221;-67